createdAt,value
2023-03-31T00:02:07.591Z,11.87
2023-03-31T00:04:37.017Z,11.23
2023-03-31T00:07:08.444Z,11.70
2023-03-31T00:09:37.922Z,11.97
2023-03-31T00:12:09.394Z,14.53
2023-03-31T00:14:38.607Z,10.63
2023-03-31T00:17:07.856Z,12.87
2023-03-31T00:19:38.036Z,10.93
2023-03-31T00:22:07.501Z,10.43
2023-03-31T00:24:37.642Z,11.17
2023-03-31T00:27:08.389Z,11.47
2023-03-31T00:29:41.457Z,9.90
2023-03-31T00:32:11.135Z,11.03
2023-03-31T00:34:41.034Z,10.37
2023-03-31T00:37:10.207Z,10.33
2023-03-31T00:39:40.530Z,10.43
2023-03-31T00:42:14.353Z,10.20
2023-03-31T00:45:17.503Z,11.90
2023-03-31T00:47:50.336Z,10.13
2023-03-31T00:50:22.552Z,10.03
2023-03-31T00:52:56.277Z,12.13
2023-03-31T00:55:30.028Z,11.97
2023-03-31T00:58:05.003Z,10.27
2023-03-31T01:00:34.341Z,9.83
2023-03-31T01:03:07.832Z,9.33
2023-03-31T01:05:41.853Z,10.67
2023-03-31T01:08:12.041Z,9.43
2023-03-31T01:10:46.947Z,9.93
2023-03-31T01:13:19.320Z,8.57
2023-03-31T01:15:48.656Z,10.57
2023-03-31T01:18:21.383Z,8.73
2023-03-31T01:21:47.503Z,9.30
2023-03-31T01:24:52.145Z,9.53
2023-03-31T01:27:51.139Z,9.10
2023-03-31T01:31:04.449Z,9.37
2023-03-31T01:34:10.421Z,10.10
2023-03-31T01:37:24.688Z,9.80
2023-03-31T01:40:31.918Z,11.80
2023-03-31T01:43:07.900Z,9.27
2023-03-31T01:45:46.361Z,9.70
2023-03-31T01:48:19.482Z,11.43
2023-03-31T01:50:53.529Z,9.70
2023-03-31T01:53:31.624Z,10.03
2023-03-31T01:56:06.870Z,10.67
2023-03-31T01:58:40.562Z,10.93
2023-03-31T02:01:18.399Z,10.60
2023-03-31T02:03:52.139Z,9.20
2023-03-31T02:06:25.323Z,10.10
2023-03-31T02:08:59.753Z,9.53
2023-03-31T02:11:32.200Z,9.77
2023-03-31T02:14:06.166Z,9.90
2023-03-31T02:16:42.099Z,9.73
2023-03-31T02:19:14.275Z,9.00
2023-03-31T02:21:43.840Z,12.60
2023-03-31T02:24:16.062Z,9.83
2023-03-31T02:26:51.368Z,9.03
2023-03-31T02:29:21.027Z,9.47
2023-03-31T02:31:55.632Z,9.57
2023-03-31T02:34:25.435Z,9.37
2023-03-31T02:36:54.722Z,10.17
2023-03-31T02:39:29.308Z,10.40
2023-03-31T02:42:00.100Z,9.37
2023-03-31T02:44:29.568Z,9.50
2023-03-31T02:46:58.886Z,9.63
2023-03-31T02:49:28.117Z,9.47
2023-03-31T02:52:25.168Z,9.63
2023-03-31T02:55:13.734Z,9.47
2023-03-31T02:57:58.000Z,9.60
2023-03-31T03:00:42.227Z,10.47
2023-03-31T03:03:24.934Z,9.23
2023-03-31T03:06:06.102Z,8.93
2023-03-31T03:08:49.400Z,8.90
2023-03-31T03:11:27.479Z,9.20
2023-03-31T03:14:05.684Z,9.63
2023-03-31T03:16:38.587Z,8.97
2023-03-31T03:19:08.906Z,9.10
2023-03-31T03:21:38.039Z,8.97
2023-03-31T03:24:07.967Z,9.00
2023-03-31T03:26:37.055Z,9.00
2023-03-31T03:29:07.890Z,8.93
2023-03-31T03:31:37.191Z,8.90
2023-03-31T03:34:07.226Z,9.93
2023-03-31T03:36:36.598Z,9.37
2023-03-31T03:39:06.805Z,9.90
2023-03-31T03:41:36.546Z,8.97
2023-03-31T03:44:07.446Z,9.73
2023-03-31T03:46:37.780Z,10.03
2023-03-31T03:49:07.031Z,10.27
2023-03-31T03:51:36.304Z,9.93
2023-03-31T03:54:05.515Z,9.90
2023-03-31T03:56:34.809Z,10.10
2023-03-31T03:59:03.932Z,11.13
2023-03-31T04:01:34.509Z,9.77
2023-03-31T04:04:03.959Z,10.13
2023-03-31T04:06:33.303Z,12.37
2023-03-31T04:09:02.642Z,10.47
2023-03-31T04:11:32.211Z,10.23
2023-03-31T04:14:01.446Z,12.37
2023-03-31T04:16:31.025Z,13.57
2023-03-31T04:19:05.276Z,11.30
2023-03-31T04:21:36.034Z,10.50
2023-03-31T04:24:05.772Z,10.73
2023-03-31T04:26:43.475Z,11.53
2023-03-31T04:29:14.117Z,10.53
2023-03-31T04:31:44.255Z,11.07
2023-03-31T04:34:16.956Z,11.27
2023-03-31T04:36:56.337Z,11.40
2023-03-31T04:39:27.172Z,10.40
2023-03-31T04:41:56.474Z,11.70
2023-03-31T04:44:25.755Z,11.70
2023-03-31T04:46:55.279Z,10.60
2023-03-31T04:49:26.193Z,12.30
2023-03-31T04:51:55.511Z,11.93
2023-03-31T04:54:24.688Z,15.00
2023-03-31T04:56:53.899Z,10.73
2023-03-31T04:59:23.122Z,12.73
2023-03-31T05:01:52.382Z,14.37
2023-03-31T05:04:21.596Z,12.47
2023-03-31T05:06:52.293Z,10.40
2023-03-31T05:09:22.364Z,9.13
2023-03-31T05:11:51.951Z,9.40
2023-03-31T05:14:22.188Z,10.50
2023-03-31T05:16:51.862Z,10.93
2023-03-31T05:19:21.247Z,11.10
2023-03-31T05:21:51.879Z,11.60
2023-03-31T05:24:21.331Z,14.10
2023-03-31T05:26:53.034Z,13.67
2023-03-31T05:29:22.385Z,12.97
2023-03-31T05:31:53.477Z,14.20
2023-03-31T05:34:22.966Z,14.80
2023-03-31T05:36:54.135Z,15.13
2023-03-31T05:39:23.382Z,14.17
2023-03-31T05:41:52.631Z,17.10
2023-03-31T05:44:21.786Z,15.87
2023-03-31T05:46:51.141Z,15.23
2023-03-31T05:49:20.750Z,15.77
2023-03-31T05:51:50.721Z,13.87
2023-03-31T05:54:21.658Z,14.70
2023-03-31T05:56:51.092Z,15.73
2023-03-31T05:59:20.559Z,14.73
2023-03-31T06:01:49.812Z,12.50
2023-03-31T06:04:19.362Z,14.00
2023-03-31T06:06:50.630Z,13.03
2023-03-31T06:09:21.536Z,13.27
2023-03-31T06:11:50.707Z,13.23
2023-03-31T06:14:19.965Z,12.73
2023-03-31T06:16:49.628Z,12.77
2023-03-31T06:19:19.197Z,12.50
2023-03-31T06:21:48.390Z,13.30
2023-03-31T06:24:17.635Z,14.50
2023-03-31T06:26:48.256Z,13.03
2023-03-31T06:29:17.466Z,12.63
2023-03-31T06:31:46.938Z,14.63
2023-03-31T06:34:17.774Z,13.03
2023-03-31T06:36:47.733Z,13.67
2023-03-31T06:39:16.904Z,11.77
2023-03-31T06:41:47.564Z,11.20
2023-03-31T06:44:25.529Z,11.83
2023-03-31T06:46:55.130Z,11.97
2023-03-31T06:49:24.683Z,11.73
2023-03-31T06:51:53.985Z,11.37
2023-03-31T06:54:23.149Z,12.60
2023-03-31T06:56:53.830Z,13.07
2023-03-31T06:59:23.004Z,10.93
2023-03-31T07:01:52.428Z,11.43
2023-03-31T07:04:21.715Z,12.07
2023-03-31T07:06:51.673Z,10.83
2023-03-31T07:09:23.533Z,11.67
2023-03-31T07:11:56.590Z,12.17
2023-03-31T07:14:26.660Z,11.47
2023-03-31T07:16:55.914Z,14.30
2023-03-31T07:19:25.419Z,12.07
2023-03-31T07:21:55.123Z,12.23
2023-03-31T07:24:24.796Z,11.87
2023-03-31T07:26:55.399Z,12.13
2023-03-31T07:29:24.626Z,11.90
2023-03-31T07:31:53.993Z,12.67
2023-03-31T07:34:23.297Z,12.87
2023-03-31T07:36:53.210Z,12.80
2023-03-31T07:39:22.488Z,14.50
2023-03-31T07:41:51.762Z,14.23
2023-03-31T07:44:23.669Z,14.60
2023-03-31T07:46:53.022Z,13.23
2023-03-31T07:49:22.309Z,13.33
2023-03-31T07:51:52.076Z,13.77
2023-03-31T07:54:21.666Z,14.17
2023-03-31T07:56:51.257Z,13.67
2023-03-31T07:59:22.306Z,14.90
2023-03-31T08:01:51.666Z,14.07
2023-03-31T08:04:21.158Z,16.20
2023-03-31T08:06:51.884Z,14.03
2023-03-31T08:09:23.247Z,11.13
2023-03-31T08:11:52.902Z,13.00
2023-03-31T08:14:34.164Z,11.97
2023-03-31T08:17:09.660Z,12.87
2023-03-31T08:19:39.302Z,11.57
2023-03-31T08:22:08.967Z,11.33
2023-03-31T08:24:38.221Z,11.30
2023-03-31T08:27:12.049Z,11.70
2023-03-31T08:29:43.160Z,12.60
2023-03-31T08:32:12.689Z,11.80
2023-03-31T08:34:42.945Z,11.57
2023-03-31T08:37:12.402Z,11.50
2023-03-31T08:39:41.899Z,12.77
2023-03-31T08:42:16.865Z,10.87
2023-03-31T08:44:55.896Z,11.10
2023-03-31T08:47:28.874Z,12.17
2023-03-31T08:50:01.943Z,11.07
2023-03-31T08:52:36.204Z,9.43
2023-03-31T08:55:09.155Z,8.83
2023-03-31T08:57:47.502Z,9.40
2023-03-31T09:00:20.605Z,9.23
2023-03-31T09:02:57.304Z,9.80
2023-03-31T09:05:59.256Z,10.70
2023-03-31T09:08:36.680Z,9.67
2023-03-31T09:11:13.132Z,11.23
2023-03-31T09:13:56.960Z,11.97
2023-03-31T09:16:33.690Z,9.83
2023-03-31T09:19:04.012Z,8.00
2023-03-31T09:21:35.502Z,10.40
2023-03-31T09:24:09.734Z,8.10
2023-03-31T09:26:42.979Z,8.63
2023-03-31T09:29:19.827Z,8.47
2023-03-31T09:31:50.793Z,7.20
2023-03-31T09:34:30.061Z,8.00
2023-03-31T09:36:59.330Z,8.20
2023-03-31T09:39:28.848Z,7.90
2023-03-31T09:41:58.081Z,8.23
2023-03-31T09:44:31.741Z,6.90
2023-03-31T09:47:04.448Z,9.25
2023-03-31T09:49:37.706Z,7.70
2023-03-31T09:52:09.325Z,10.57
2023-03-31T09:54:43.166Z,7.50
2023-03-31T09:57:18.008Z,7.40
2023-03-31T09:59:52.974Z,10.00
2023-03-31T10:02:45.720Z,8.05
2023-03-31T10:05:28.870Z,6.93
2023-03-31T10:08:35.239Z,7.38
2023-03-31T10:11:11.579Z,7.93
2023-03-31T10:13:48.214Z,6.55
2023-03-31T10:16:24.574Z,7.90
2023-03-31T10:18:55.370Z,7.70
2023-03-31T10:21:26.526Z,9.93
2023-03-31T10:23:56.504Z,6.18
2023-03-31T10:26:28.760Z,8.35
2023-03-31T10:28:58.227Z,10.35
2023-03-31T10:31:29.043Z,6.05
2023-03-31T10:34:00.113Z,6.60
2023-03-31T10:36:32.069Z,11.15
2023-03-31T10:39:01.700Z,6.75
2023-03-31T10:41:32.397Z,5.53
2023-03-31T10:44:03.970Z,7.70
2023-03-31T10:46:44.720Z,6.00
2023-03-31T10:49:27.092Z,5.03
2023-03-31T10:51:57.859Z,5.68
2023-03-31T10:54:27.628Z,7.13
2023-03-31T10:56:59.130Z,6.45
2023-03-31T10:59:40.735Z,7.82
2023-03-31T11:02:39.413Z,7.45
2023-03-31T11:05:16.686Z,7.25
2023-03-31T11:07:56.676Z,6.30
2023-03-31T11:10:40.715Z,5.45
2023-03-31T11:13:18.700Z,5.55
2023-03-31T11:16:01.648Z,6.20
2023-03-31T11:18:49.385Z,5.82
2023-03-31T11:21:26.765Z,7.13
2023-03-31T11:24:05.627Z,5.03
2023-03-31T11:26:44.694Z,5.03
2023-03-31T11:29:23.378Z,5.28
2023-03-31T11:31:58.935Z,6.32
2023-03-31T11:34:46.523Z,5.63
2023-03-31T11:37:41.801Z,5.68
2023-03-31T11:40:43.543Z,5.07
2023-03-31T11:43:22.593Z,6.68
2023-03-31T11:45:55.285Z,5.57
2023-03-31T11:48:37.821Z,6.65
2023-03-31T11:51:13.081Z,5.75
2023-03-31T11:53:46.711Z,6.28
2023-03-31T11:56:17.685Z,6.55
2023-03-31T11:58:51.011Z,4.78
2023-03-31T12:01:25.750Z,7.68
2023-03-31T12:04:01.910Z,7.20
2023-03-31T12:06:34.401Z,5.63
2023-03-31T12:09:11.965Z,6.85
2023-03-31T12:11:47.174Z,5.78
2023-03-31T12:14:32.731Z,7.32
2023-03-31T12:17:06.860Z,6.38
2023-03-31T12:19:45.698Z,7.25
2023-03-31T12:22:20.191Z,7.82
2023-03-31T12:24:51.030Z,7.57
2023-03-31T12:27:25.068Z,4.95
2023-03-31T12:29:58.906Z,6.63
2023-03-31T12:32:32.989Z,5.35
2023-03-31T12:35:05.900Z,7.70
2023-03-31T12:38:00.634Z,5.15
2023-03-31T12:40:43.315Z,7.18
2023-03-31T12:43:40.131Z,8.80
2023-03-31T12:46:25.207Z,7.03
2023-03-31T12:49:17.792Z,4.28
2023-03-31T12:52:08.928Z,5.90
2023-03-31T12:54:57.701Z,5.80
2023-03-31T12:57:29.204Z,6.05
2023-03-31T13:00:21.280Z,4.07
2023-03-31T13:02:51.773Z,6.15
2023-03-31T13:05:49.637Z,6.43
2023-03-31T13:08:52.835Z,6.60
2023-03-31T13:11:24.264Z,5.55
2023-03-31T13:14:02.746Z,7.13
2023-03-31T13:16:32.805Z,8.00
2023-03-31T13:19:02.803Z,4.97
2023-03-31T13:21:32.385Z,4.53
2023-03-31T13:24:03.487Z,4.75
2023-03-31T13:26:43.376Z,4.25
2023-03-31T13:29:22.505Z,4.90
2023-03-31T13:32:25.749Z,6.45
2023-03-31T13:35:01.366Z,3.97
2023-03-31T13:37:58.596Z,4.90
2023-03-31T13:40:58.933Z,4.80
2023-03-31T13:43:59.755Z,6.00
2023-03-31T13:46:46.453Z,7.13
2023-03-31T13:49:47.967Z,7.00
2023-03-31T13:52:26.997Z,11.02
2023-03-31T13:55:22.768Z,7.03
2023-03-31T13:58:33.526Z,6.93
2023-03-31T14:01:23.027Z,6.03
2023-03-31T14:04:07.285Z,5.18
2023-03-31T14:06:39.636Z,6.63
2023-03-31T14:09:12.098Z,4.07
2023-03-31T14:11:41.628Z,5.55
2023-03-31T14:14:15.773Z,5.40
2023-03-31T14:16:48.104Z,5.47
2023-03-31T14:20:08.619Z,4.78
2023-03-31T14:22:49.262Z,5.30
2023-03-31T14:25:28.512Z,5.07
2023-03-31T14:28:10.004Z,4.63
2023-03-31T14:30:47.095Z,5.10
2023-03-31T14:33:29.850Z,5.72
2023-03-31T14:36:04.021Z,3.92
2023-03-31T14:38:34.711Z,6.17
2023-03-31T14:41:04.960Z,4.57
2023-03-31T14:43:36.515Z,4.30
2023-03-31T14:46:07.875Z,6.38
2023-03-31T14:48:45.325Z,5.35
2023-03-31T14:51:16.847Z,4.50
2023-03-31T14:53:47.847Z,3.53
2023-03-31T14:56:22.922Z,3.87
2023-03-31T14:58:54.743Z,5.00
2023-03-31T15:01:28.655Z,5.90
2023-03-31T15:03:58.225Z,4.50
2023-03-31T15:06:28.217Z,3.30
2023-03-31T15:09:00.009Z,6.53
2023-03-31T15:11:30.391Z,7.82
2023-03-31T15:14:04.929Z,6.00
2023-03-31T15:16:42.319Z,6.93
2023-03-31T15:19:18.346Z,5.85
2023-03-31T15:21:48.567Z,8.30
2023-03-31T15:24:19.774Z,6.50
2023-03-31T15:26:55.146Z,6.10
2023-03-31T15:29:28.506Z,6.05
2023-03-31T15:32:00.062Z,4.90
2023-03-31T15:34:33.731Z,3.07
2023-03-31T15:37:03.329Z,4.50
2023-03-31T15:39:35.738Z,3.47
2023-03-31T15:42:07.413Z,2.27
2023-03-31T15:44:45.174Z,2.70
2023-03-31T15:47:20.430Z,3.80
2023-03-31T15:49:55.284Z,2.57
2023-03-31T15:52:29.227Z,3.27
2023-03-31T15:55:02.106Z,3.00
2023-03-31T15:57:36.808Z,2.73
2023-03-31T16:00:08.301Z,2.30
2023-03-31T16:02:47.588Z,2.17
2023-03-31T16:05:43.675Z,2.57
2023-03-31T16:08:26.378Z,2.20
2023-03-31T16:11:04.778Z,2.40
2023-03-31T16:16:11.966Z,3.43
2023-03-31T16:18:44.697Z,3.47
2023-03-31T16:21:16.617Z,4.07
2023-03-31T16:23:52.289Z,2.53
2023-03-31T16:26:24.636Z,3.47
2023-03-31T16:28:57.838Z,2.10
2023-03-31T16:31:34.740Z,2.17
2023-03-31T16:34:06.179Z,3.03
2023-03-31T16:36:35.946Z,2.27
2023-03-31T16:39:07.299Z,3.10
2023-03-31T16:41:39.676Z,2.50
2023-03-31T16:44:09.880Z,2.77
2023-03-31T16:46:39.682Z,2.33
2023-03-31T16:49:09.331Z,2.83
2023-03-31T16:51:40.118Z,2.00
2023-03-31T16:54:09.834Z,2.77
2023-03-31T16:56:41.774Z,2.30
2023-03-31T16:59:12.053Z,2.60
2023-03-31T17:01:42.106Z,4.07
2023-03-31T17:04:12.678Z,2.43
2023-03-31T17:06:43.103Z,3.80
2023-03-31T17:09:13.056Z,2.77
2023-03-31T17:11:45.014Z,2.37
2023-03-31T17:14:17.423Z,4.83
2023-03-31T17:16:50.912Z,2.53
2023-03-31T17:19:23.823Z,2.87
2023-03-31T17:21:53.852Z,4.00
2023-03-31T17:24:24.149Z,2.50
2023-03-31T17:26:54.746Z,3.23
2023-03-31T17:29:26.148Z,2.77
2023-03-31T17:31:56.271Z,2.57
2023-03-31T17:34:26.106Z,2.97
2023-03-31T17:36:57.546Z,3.40
2023-03-31T17:39:28.351Z,2.73
2023-03-31T17:41:59.993Z,3.20
2023-03-31T17:44:30.473Z,4.77
2023-03-31T17:47:01.759Z,4.07
2023-03-31T17:49:32.589Z,5.13
2023-03-31T17:52:08.734Z,5.47
2023-03-31T17:54:41.410Z,4.37
2023-03-31T17:57:13.602Z,4.43
2023-03-31T17:59:43.424Z,4.20
2023-03-31T18:02:16.170Z,5.73
2023-03-31T18:04:46.745Z,6.87
2023-03-31T18:07:18.470Z,4.67
2023-03-31T18:09:49.094Z,5.17
2023-03-31T18:12:23.254Z,6.03
2023-03-31T18:14:53.569Z,5.20
2023-03-31T18:17:24.215Z,5.63
2023-03-31T18:20:02.279Z,6.73
2023-03-31T18:22:37.762Z,6.33
2023-03-31T18:25:09.680Z,8.07
2023-03-31T18:27:47.922Z,7.47
2023-03-31T18:30:18.732Z,6.70
2023-03-31T18:32:48.815Z,8.90
2023-03-31T18:35:20.608Z,6.30
2023-03-31T18:37:52.241Z,6.27
2023-03-31T18:40:24.461Z,5.73
2023-03-31T18:43:05.867Z,7.33
2023-03-31T18:45:39.497Z,6.20
2023-03-31T18:48:10.378Z,7.10
2023-03-31T18:50:42.242Z,6.87
2023-03-31T18:53:17.953Z,6.30
2023-03-31T18:55:58.790Z,6.63
2023-03-31T18:58:32.715Z,7.80
2023-03-31T19:01:04.198Z,7.50
2023-03-31T19:03:38.507Z,5.87
2023-03-31T19:06:11.603Z,8.30
2023-03-31T19:08:47.613Z,8.70
2023-03-31T19:11:28.360Z,7.43
2023-03-31T19:14:00.148Z,8.93
2023-03-31T19:16:42.064Z,12.07
2023-03-31T19:19:16.155Z,14.17
2023-03-31T19:21:55.266Z,10.63
2023-03-31T19:24:29.155Z,10.47
2023-03-31T19:27:10.490Z,9.40
2023-03-31T19:29:45.947Z,7.83
2023-03-31T19:32:17.611Z,10.57
2023-03-31T19:34:53.752Z,8.13
2023-03-31T19:37:25.091Z,9.53
2023-03-31T19:39:59.314Z,10.37
2023-03-31T19:42:30.461Z,11.70
2023-03-31T19:45:06.682Z,11.63
2023-03-31T19:47:43.597Z,12.17
2023-03-31T19:50:19.154Z,11.87
2023-03-31T19:52:52.835Z,12.40
2023-03-31T19:55:24.332Z,13.00
2023-03-31T19:57:57.267Z,11.57
2023-03-31T20:00:30.469Z,14.00
2023-03-31T20:03:04.240Z,13.77
2023-03-31T20:05:34.956Z,14.27
2023-03-31T20:08:05.829Z,12.63
2023-03-31T20:10:41.621Z,13.60
2023-03-31T20:13:12.299Z,15.80
2023-03-31T20:15:44.941Z,14.70
2023-03-31T20:18:16.151Z,15.87
2023-03-31T20:20:50.223Z,12.63
2023-03-31T20:23:20.032Z,17.03
2023-03-31T20:25:53.752Z,14.40
2023-03-31T20:28:24.518Z,14.03
2023-03-31T20:31:00.041Z,12.80
2023-03-31T20:33:29.672Z,13.40
2023-03-31T20:36:05.764Z,14.53
2023-03-31T20:38:39.702Z,15.60
2023-03-31T20:41:11.292Z,16.27
2023-03-31T20:43:42.248Z,15.73
2023-03-31T20:46:13.218Z,15.67
2023-03-31T20:48:44.965Z,16.20
2023-03-31T20:51:17.127Z,14.63
2023-03-31T20:53:48.286Z,15.43
2023-03-31T20:56:26.153Z,16.23
2023-03-31T20:58:59.420Z,14.07
2023-03-31T21:01:50.253Z,13.47
2023-03-31T21:04:19.906Z,15.07
2023-03-31T21:06:49.686Z,13.50
2023-03-31T21:09:19.127Z,13.07
2023-03-31T21:11:48.344Z,14.20
2023-03-31T21:14:18.375Z,13.93
2023-03-31T21:16:49.014Z,13.00
2023-03-31T21:19:18.353Z,13.83
2023-03-31T21:21:47.559Z,13.70
2023-03-31T21:24:17.205Z,16.30
2023-03-31T21:26:46.578Z,14.67
2023-03-31T21:29:15.722Z,16.40
2023-03-31T21:31:46.229Z,13.20
2023-03-31T21:34:16.977Z,11.67
2023-03-31T21:36:46.553Z,15.97
2023-03-31T21:39:16.473Z,13.03
2023-03-31T21:41:45.804Z,12.23
2023-03-31T21:44:15.196Z,12.17
2023-03-31T21:46:45.253Z,11.17
2023-03-31T21:49:17.368Z,11.37
2023-03-31T21:51:47.551Z,10.30
2023-03-31T21:54:17.282Z,10.43
2023-03-31T21:56:46.798Z,9.83
2023-03-31T21:59:16.069Z,10.30
2023-03-31T22:01:45.771Z,11.43
2023-03-31T22:04:16.461Z,10.43
2023-03-31T22:06:45.817Z,9.90
2023-03-31T22:09:15.532Z,9.30
2023-03-31T22:11:45.131Z,9.70
2023-03-31T22:14:15.032Z,10.87
2023-03-31T22:16:44.254Z,11.10
2023-03-31T22:19:16.276Z,11.00
2023-03-31T22:21:46.024Z,9.47
2023-03-31T22:24:15.589Z,10.97
2023-03-31T22:26:44.748Z,9.70
2023-03-31T22:29:16.854Z,11.27
2023-03-31T22:31:46.253Z,10.20
2023-03-31T22:34:19.194Z,10.30
2023-03-31T22:36:48.902Z,11.63
2023-03-31T22:39:18.431Z,10.23
2023-03-31T22:41:49.613Z,12.47
2023-03-31T22:44:19.133Z,10.80
2023-03-31T22:46:48.362Z,11.33
2023-03-31T22:49:18.952Z,10.60
2023-03-31T22:51:48.196Z,14.23
2023-03-31T22:54:18.417Z,16.93
2023-03-31T22:56:47.723Z,17.13
2023-03-31T22:59:17.573Z,13.37
2023-03-31T23:01:47.602Z,11.60
2023-03-31T23:04:17.171Z,9.93
2023-03-31T23:06:49.510Z,11.10
2023-03-31T23:09:18.755Z,12.53
2023-03-31T23:11:48.200Z,12.10
2023-03-31T23:14:17.383Z,12.27
2023-03-31T23:16:46.620Z,10.10
2023-03-31T23:19:15.942Z,11.23
2023-03-31T23:21:45.065Z,11.13
2023-03-31T23:24:19.808Z,10.63
2023-03-31T23:26:49.262Z,19.80
2023-03-31T23:29:18.708Z,14.07
2023-03-31T23:31:47.894Z,12.23
2023-03-31T23:34:17.346Z,11.60
2023-03-31T23:36:46.504Z,12.17
2023-03-31T23:39:17.217Z,12.87
2023-03-31T23:41:46.761Z,14.07
2023-03-31T23:44:15.913Z,13.83
2023-03-31T23:46:45.115Z,12.67
2023-03-31T23:49:14.378Z,11.67
2023-03-31T23:51:44.917Z,14.27
2023-03-31T23:54:14.151Z,11.73
2023-03-31T23:56:44.844Z,11.00
2023-03-31T23:59:13.959Z,11.47
